首页
METAR-TAF:

METAR-TAF

机场 :

Frederick, 奧克拉荷馬州, 美国

纬度: 34-20-40N, 经度: 098-58-59W, 海拔: 382米

当前天气观测

该预报发布于50分钟前的22:53 UTC
风速11节,风向
温度 7°C
湿度 45%
气压 1016 hPa
能見度: 16.1公里
多云层高于11000英尺

METAR: KFDR 092253Z AUTO 01011KT 10SM BKN110 07/M04 A3000 RMK AO2 SLP151 T00671039

时间: 17:43 (23:43 UTC)


TAF: 丢失

超过4000个机场的气象观测和天气预报(METAR&TAF报告)。

可查询的气象台以黄色和红色小点在地图上表示。

将鼠标移到小点上方,可查看气象台名称。

然后点击查看天气观测和预报。

如需切换地图:点击带黑十字的绿色按钮放大地图;点击带横线的绿色按钮缩小地图;或者点击绿色箭头查看邻近地区的地图。


METAR-TAF: